Time;durP1;ratioP1;P1;durP2;ratioP2;P2;SDS_P1;SDS_P2;PMS_P1;PMS_P2;Temp;Humidity;BMP_temperature;BMP_pressure;BME280_temperature;BME280_humidity;BME280_pressure;Samples;Min_cycle;Max_cycle;Signal;HPM_P1;HPM_P2
2022/09/21 00:00:51;;;;;;;0.10;0.10;;;6.90;99.90;;;;;;4951806;29;20260;-78
2022/09/21 00:03:19;;;;;;;0.10;0.10;;;6.90;99.90;;;;;;4953785;29;20202;-78
2022/09/21 00:05:47;;;;;;;0.10;0.10;;;6.80;99.90;;;;;;4948133;29;20198;-78
2022/09/21 00:08:15;;;;;;;0.00;0.00;;;6.80;99.90;;;;;;4939223;29;20217;-77
2022/09/21 00:10:49;;;;;;;0.05;0.05;;;6.70;99.90;;;;;;4954935;29;20205;-78
2022/09/21 00:13:18;;;;;;;0.10;0.10;;;6.60;99.90;;;;;;4959638;29;20209;-78
2022/09/21 00:15:47;;;;;;;0.10;0.10;;;6.60;99.90;;;;;;4959248;29;20221;-78
2022/09/21 00:18:16;;;;;;;0.00;0.00;;;6.60;99.90;;;;;;4958549;29;20635;-79
2022/09/21 00:20:43;;;;;;;0.08;0.08;;;6.50;99.90;;;;;;4950442;29;20202;-78
2022/09/21 00:23:11;;;;;;;0.08;0.08;;;6.50;99.90;;;;;;4950322;29;20199;-78
2022/09/21 00:25:39;;;;;;;0.00;0.00;;;6.60;99.90;;;;;;4942725;29;20198;-78
2022/09/21 00:28:07;;;;;;;0.10;0.10;;;6.50;99.90;;;;;;4952918;29;20266;-77
2022/09/21 00:30:35;;;;;;;0.10;0.10;;;6.60;99.90;;;;;;4953177;29;20213;-78
2022/09/21 00:33:05;;;;;;;0.10;0.10;;;6.30;99.90;;;;;;4952714;29;20209;-75
2022/09/21 00:35:33;;;;;;;0.00;0.00;;;6.20;99.90;;;;;;4953631;29;20292;-78
2022/09/21 00:38:02;;;;;;;0.10;0.10;;;6.20;99.90;;;;;;4953377;29;20587;-76
2022/09/21 00:40:31;;;;;;;0.10;0.10;;;6.20;99.90;;;;;;4942579;29;20616;-76
2022/09/21 00:43:13;;;;;;;0.10;0.10;;;6.20;99.90;;;;;;4952281;29;20253;-76
2022/09/21 00:45:42;;;;;;;0.10;0.10;;;6.40;99.90;;;;;;4949990;29;20228;-76
2022/09/21 00:48:11;;;;;;;0.10;0.10;;;6.40;99.90;;;;;;4950126;29;20243;-76
2022/09/21 00:50:46;;;;;;;0.10;0.10;;;6.20;99.90;;;;;;4948148;29;20289;-76
2022/09/21 00:53:14;;;;;;;0.10;0.10;;;6.10;99.90;;;;;;4939463;28;20283;-76
2022/09/21 00:55:47;;;;;;;0.10;0.10;;;6.00;99.90;;;;;;4918267;29;20769;-76
2022/09/21 00:58:18;;;;;;;0.10;0.10;;;6.10;99.90;;;;;;4937351;29;20225;-76
2022/09/21 01:00:46;;;;;;;0.10;0.10;;;6.10;99.90;;;;;;4948929;29;20241;-76
2022/09/21 01:03:15;;;;;;;0.10;0.10;;;6.00;99.90;;;;;;4942625;29;20256;-76
2022/09/21 01:05:43;;;;;;;0.10;0.10;;;5.90;99.90;;;;;;4947152;29;20201;-77
2022/09/21 01:08:13;;;;;;;0.10;0.10;;;5.90;99.90;;;;;;4942866;29;20244;-77
2022/09/21 01:10:55;;;;;;;0.03;0.03;;;6.00;99.90;;;;;;4951500;29;20212;-77
2022/09/21 01:13:34;;;;;;;0.10;0.10;;;6.10;99.90;;;;;;4954495;29;20202;-79
2022/09/21 01:16:11;;;;;;;0.10;0.10;;;6.10;99.90;;;;;;4947062;29;20697;-77
2022/09/21 01:18:46;;;;;;;0.10;0.10;;;6.10;99.90;;;;;;4936439;29;20229;-76
2022/09/21 01:21:19;;;;;;;0.10;0.10;;;6.20;99.90;;;;;;4952842;29;20236;-76
2022/09/21 01:24:13;;;;;;;0.10;0.10;;;6.10;99.90;;;;;;4942333;29;20206;-78
2022/09/21 01:26:59;;;;;;;0.00;0.00;;;6.00;99.90;;;;;;4952866;29;20198;-76
2022/09/21 01:29:32;;;;;;;0.10;0.10;;;6.00;99.90;;;;;;4951534;29;20330;-75
2022/09/21 01:32:06;;;;;;;0.10;0.10;;;6.10;99.90;;;;;;4952986;29;20217;-76
2022/09/21 01:34:38;;;;;;;0.10;0.10;;;6.10;99.90;;;;;;4953585;29;20566;-75
2022/09/21 01:37:12;;;;;;;0.10;0.10;;;6.20;99.90;;;;;;4934917;29;20343;-75
2022/09/21 01:39:42;;;;;;;0.10;0.10;;;6.10;99.90;;;;;;4941980;29;20201;-75
2022/09/21 01:42:12;;;;;;;0.10;0.10;;;6.10;99.90;;;;;;4953473;29;20194;-75
2022/09/21 01:44:43;;;;;;;0.10;0.10;;;6.10;99.90;;;;;;4936334;29;20625;-75
2022/09/21 01:47:13;;;;;;;0.10;0.10;;;6.20;99.90;;;;;;4947729;29;20222;-74
2022/09/21 01:49:45;;;;;;;0.10;0.10;;;6.10;99.90;;;;;;4962855;29;20206;-75
2022/09/21 01:52:18;;;;;;;0.00;0.00;;;6.20;99.90;;;;;;4951124;29;20209;-74
2022/09/21 01:54:48;;;;;;;0.10;0.10;;;6.10;99.90;;;;;;4959606;29;20209;-74
2022/09/21 01:57:25;;;;;;;0.10;0.10;;;6.10;99.90;;;;;;4959556;29;20265;-75
2022/09/21 01:59:57;;;;;;;0.00;0.00;;;6.00;99.90;;;;;;4947362;29;20195;-75
2022/09/21 02:02:30;;;;;;;0.10;0.10;;;5.90;99.90;;;;;;4953560;29;20194;-76
2022/09/21 02:05:00;;;;;;;0.00;0.00;;;6.00;99.90;;;;;;4955441;28;20601;-75
2022/09/21 02:07:27;;;;;;;0.10;0.10;;;5.90;99.90;;;;;;4950419;29;20265;-75
2022/09/21 02:09:56;;;;;;;0.10;0.10;;;5.70;99.90;;;;;;4953584;29;20194;-75
2022/09/21 02:12:24;;;;;;;0.10;0.10;;;5.60;99.90;;;;;;4956632;29;20206;-75
2022/09/21 02:14:55;;;;;;;0.00;0.00;;;5.40;99.90;;;;;;4956361;29;20223;-75
2022/09/21 02:17:33;;;;;;;0.10;0.10;;;5.40;99.90;;;;;;4952816;29;20230;-76
2022/09/21 02:20:11;;;;;;;0.10;0.10;;;5.50;99.90;;;;;;4955221;29;20260;-76
2022/09/21 02:22:45;;;;;;;0.10;0.10;;;5.40;99.90;;;;;;4956580;29;20253;-74
2022/09/21 02:25:18;;;;;;;0.10;0.10;;;5.40;99.90;;;;;;4943146;29;20292;-74
2022/09/21 02:27:51;;;;;;;0.05;0.05;;;5.50;99.90;;;;;;4953460;29;20569;-74
2022/09/21 02:30:22;;;;;;;0.00;0.00;;;5.50;99.90;;;;;;4948365;29;20276;-75
2022/09/21 02:32:59;;;;;;;0.03;0.03;;;5.50;99.90;;;;;;4936985;29;20595;-75
2022/09/21 02:35:35;;;;;;;0.10;0.10;;;5.50;99.90;;;;;;4936535;29;20206;-75
2022/09/21 02:38:11;;;;;;;0.10;0.10;;;5.60;99.90;;;;;;4939068;29;20267;-75
2022/09/21 02:40:43;;;;;;;0.00;0.00;;;5.50;99.90;;;;;;4955744;29;20197;-75
2022/09/21 02:43:19;;;;;;;0.10;0.10;;;5.50;99.90;;;;;;4951504;29;20249;-75
2022/09/21 02:45:53;;;;;;;0.10;0.10;;;5.50;99.90;;;;;;4945727;29;20621;-74
2022/09/21 02:48:28;;;;;;;0.00;0.00;;;5.50;99.90;;;;;;4951151;29;20288;-74
2022/09/21 02:51:02;;;;;;;0.05;0.05;;;5.40;99.90;;;;;;4938615;29;20826;-75
2022/09/21 02:53:35;;;;;;;0.10;0.10;;;5.30;99.90;;;;;;4936622;29;20236;-76
2022/09/21 02:56:06;;;;;;;0.10;0.10;;;5.40;99.90;;;;;;4947650;29;20260;-75
2022/09/21 02:58:37;;;;;;;0.10;0.10;;;5.20;99.90;;;;;;4947792;29;20233;-75
2022/09/21 03:01:10;;;;;;;0.10;0.10;;;5.10;99.90;;;;;;4953319;29;20206;-74
2022/09/21 03:03:38;;;;;;;0.10;0.10;;;5.00;99.90;;;;;;4963812;29;20569;-75
2022/09/21 03:06:06;;;;;;;0.10;0.10;;;5.00;99.90;;;;;;4950819;29;20241;-75
2022/09/21 03:08:34;;;;;;;0.10;0.10;;;5.00;99.90;;;;;;4947220;29;20277;-75
2022/09/21 03:11:02;;;;;;;0.10;0.10;;;4.90;99.90;;;;;;4955130;29;20221;-76
2022/09/21 03:13:29;;;;;;;0.10;0.10;;;5.00;99.90;;;;;;4954897;29;20724;-76
2022/09/21 03:16:02;;;;;;;0.10;0.10;;;4.90;99.90;;;;;;4951316;28;20704;-76
2022/09/21 03:18:32;;;;;;;0.10;0.10;;;5.00;99.90;;;;;;4955703;29;20221;-76
2022/09/21 03:21:01;;;;;;;0.10;0.10;;;5.00;99.90;;;;;;4955077;29;20260;-76
2022/09/21 03:23:29;;;;;;;0.10;0.10;;;5.00;99.90;;;;;;4954890;29;20248;-77
2022/09/21 03:25:57;;;;;;;0.05;0.05;;;5.10;99.90;;;;;;4952639;29;20233;-76
2022/09/21 03:28:24;;;;;;;0.10;0.10;;;5.10;99.90;;;;;;4954784;29;20226;-76
2022/09/21 03:30:52;;;;;;;0.10;0.10;;;5.20;99.90;;;;;;4948491;29;20662;-77
2022/09/21 03:33:20;;;;;;;0.00;0.00;;;5.30;99.90;;;;;;4956329;29;20209;-77
2022/09/21 03:35:51;;;;;;;0.10;0.10;;;5.20;99.90;;;;;;4955848;29;20202;-77
2022/09/21 03:38:19;;;;;;;0.00;0.00;;;5.20;99.90;;;;;;4952111;29;20250;-78
2022/09/21 03:40:48;;;;;;;0.10;0.10;;;5.20;99.90;;;;;;4948432;29;20194;-77
2022/09/21 03:43:16;;;;;;;0.10;0.10;;;5.20;99.90;;;;;;4937076;29;20202;-77
2022/09/21 03:45:44;;;;;;;0.10;0.10;;;5.20;99.90;;;;;;4947564;29;20265;-77
2022/09/21 03:48:13;;;;;;;0.03;0.03;;;5.20;99.90;;;;;;4953683;29;20253;-78
2022/09/21 03:50:41;;;;;;;0.10;0.10;;;5.20;99.90;;;;;;4946759;29;20717;-77
2022/09/21 03:53:10;;;;;;;0.10;0.10;;;5.10;99.90;;;;;;4956506;29;20543;-77
2022/09/21 03:55:38;;;;;;;0.10;0.10;;;5.10;99.90;;;;;;4946978;29;20253;-77
2022/09/21 03:58:06;;;;;;;0.10;0.10;;;5.00;99.90;;;;;;4929165;29;20791;-78
2022/09/21 04:00:34;;;;;;;0.10;0.10;;;4.90;99.90;;;;;;4954766;29;20540;-77
2022/09/21 04:03:02;;;;;;;0.10;0.10;;;4.90;99.90;;;;;;4954312;29;20543;-77
2022/09/21 04:05:30;;;;;;;0.10;0.10;;;4.90;99.90;;;;;;4955226;29;20202;-77
2022/09/21 04:08:00;;;;;;;0.10;0.10;;;4.90;99.90;;;;;;4944952;29;20313;-78
2022/09/21 04:10:32;;;;;;;0.00;0.00;;;5.00;99.90;;;;;;4959594;29;20221;-77
2022/09/21 04:13:02;;;;;;;0.00;0.00;;;5.00;99.90;;;;;;4967845;29;20205;-77
2022/09/21 04:15:30;;;;;;;0.00;0.00;;;4.90;99.90;;;;;;4953225;29;20210;-77
2022/09/21 04:17:58;;;;;;;0.10;0.10;;;4.90;99.90;;;;;;4944381;29;20219;-77
2022/09/21 04:20:26;;;;;;;0.10;0.10;;;4.90;99.90;;;;;;4956100;29;20232;-77
2022/09/21 04:22:54;;;;;;;0.00;0.00;;;4.90;99.90;;;;;;4940363;29;20202;-77
2022/09/21 04:25:22;;;;;;;0.10;0.10;;;5.00;99.90;;;;;;4943921;29;20280;-77
2022/09/21 04:27:51;;;;;;;0.10;0.10;;;5.00;99.90;;;;;;4941460;28;20246;-76
2022/09/21 04:30:19;;;;;;;0.03;0.03;;;4.90;99.90;;;;;;4941255;29;20598;-76
2022/09/21 04:32:47;;;;;;;0.00;0.00;;;4.80;99.90;;;;;;4941834;29;20508;-77
2022/09/21 04:35:14;;;;;;;0.00;0.00;;;4.90;99.90;;;;;;4944914;29;20206;-77
2022/09/21 04:37:42;;;;;;;0.10;0.10;;;4.90;99.90;;;;;;4942731;29;20214;-76
2022/09/21 04:40:10;;;;;;;0.10;0.10;;;4.90;99.90;;;;;;4947613;29;20214;-76
2022/09/21 04:42:38;;;;;;;0.10;0.10;;;4.90;99.90;;;;;;4947533;29;20212;-77
2022/09/21 04:45:09;;;;;;;0.10;0.10;;;4.90;99.90;;;;;;4953739;29;20206;-76
2022/09/21 04:47:37;;;;;;;0.10;0.10;;;4.90;99.90;;;;;;4953443;29;20225;-76
2022/09/21 04:50:05;;;;;;;0.08;0.08;;;5.00;99.90;;;;;;4946731;29;20237;-76
2022/09/21 04:52:33;;;;;;;0.10;0.10;;;5.00;99.90;;;;;;4954991;29;20205;-78
2022/09/21 04:55:01;;;;;;;0.10;0.10;;;4.80;99.90;;;;;;4954761;29;20213;-78
2022/09/21 04:57:29;;;;;;;0.10;0.10;;;4.70;99.90;;;;;;4950736;29;20626;-77
2022/09/21 04:59:57;;;;;;;0.10;0.10;;;4.70;99.90;;;;;;4941586;29;20194;-77
2022/09/21 05:02:26;;;;;;;0.00;0.00;;;4.60;99.90;;;;;;4936351;29;20202;-77
2022/09/21 05:04:54;;;;;;;0.10;0.10;;;4.60;99.90;;;;;;4938514;29;20213;-77
2022/09/21 05:07:22;;;;;;;0.10;0.10;;;4.60;99.90;;;;;;4927918;29;20277;-77
2022/09/21 05:10:05;;;;;;;0.10;0.10;;;4.60;99.90;;;;;;4938633;28;20230;-77
2022/09/21 05:12:34;;;;;;;0.05;0.05;;;4.60;99.90;;;;;;4951220;29;20201;-76
2022/09/21 05:15:08;;;;;;;0.10;0.10;;;4.70;99.90;;;;;;4954274;29;20560;-77
2022/09/21 05:17:37;;;;;;;0.10;0.10;;;4.60;99.90;;;;;;4941883;29;20712;-77
2022/09/21 05:20:06;;;;;;;0.10;0.10;;;4.60;99.90;;;;;;4948424;29;20244;-78
2022/09/21 05:22:34;;;;;;;0.10;0.10;;;4.60;99.90;;;;;;4919345;29;20669;-78
2022/09/21 05:25:02;;;;;;;0.10;0.10;;;4.70;99.90;;;;;;4937962;29;20529;-77
2022/09/21 05:27:29;;;;;;;0.10;0.10;;;4.70;99.90;;;;;;4939534;29;20277;-77
2022/09/21 05:29:58;;;;;;;0.10;0.10;;;4.70;99.90;;;;;;4951355;29;20226;-77
2022/09/21 05:32:32;;;;;;;0.10;0.10;;;4.60;99.90;;;;;;4942562;29;20206;-78
2022/09/21 05:35:10;;;;;;;0.10;0.10;;;4.60;99.90;;;;;;4940137;29;20204;-78
2022/09/21 05:37:45;;;;;;;0.10;0.10;;;4.60;99.90;;;;;;4944704;29;20214;-77
2022/09/21 05:40:14;;;;;;;0.10;0.10;;;4.60;99.90;;;;;;4944660;29;20194;-77
2022/09/21 05:42:43;;;;;;;0.10;0.10;;;4.60;99.90;;;;;;4943580;29;20210;-78
2022/09/21 05:45:15;;;;;;;0.10;0.10;;;4.60;99.90;;;;;;4925031;29;20206;-77
2022/09/21 05:48:06;;;;;;;0.05;0.05;;;4.60;99.90;;;;;;4941873;29;20225;-77
2022/09/21 05:50:42;;;;;;;0.10;0.10;;;4.60;99.90;;;;;;4953155;29;20202;-77
2022/09/21 05:53:22;;;;;;;0.10;0.10;;;4.70;99.90;;;;;;4961323;29;20205;-77
2022/09/21 05:55:56;;;;;;;0.10;0.10;;;4.70;99.90;;;;;;4951827;29;20226;-78
2022/09/21 05:58:36;;;;;;;0.10;0.10;;;4.70;99.90;;;;;;4949092;29;20717;-78
2022/09/21 06:01:20;;;;;;;0.00;0.00;;;4.80;99.90;;;;;;4950399;29;20206;-77
2022/09/21 06:03:49;;;;;;;0.03;0.03;;;4.90;99.90;;;;;;4926129;29;20682;-77
2022/09/21 06:06:19;;;;;;;0.10;0.10;;;4.90;99.90;;;;;;4945925;29;20229;-78
2022/09/21 06:08:47;;;;;;;0.10;0.10;;;4.90;99.90;;;;;;4942245;29;20249;-77
2022/09/21 06:11:15;;;;;;;0.00;0.00;;;5.00;99.90;;;;;;4952051;29;20225;-78
2022/09/21 06:13:43;;;;;;;0.05;0.05;;;5.10;99.90;;;;;;4948106;29;20234;-78
2022/09/21 06:16:11;;;;;;;0.10;0.10;;;5.20;99.90;;;;;;4956652;29;20198;-77
2022/09/21 06:18:40;;;;;;;0.10;0.10;;;5.20;99.90;;;;;;4937112;29;20221;-77
2022/09/21 06:21:08;;;;;;;0.10;0.10;;;5.30;99.90;;;;;;4960287;29;20217;-78
2022/09/21 06:23:37;;;;;;;0.10;0.10;;;5.30;99.90;;;;;;4946409;29;20578;-77
2022/09/21 06:26:05;;;;;;;0.10;0.10;;;5.30;99.90;;;;;;4956236;29;20260;-77
2022/09/21 06:28:33;;;;;;;0.10;0.10;;;5.30;99.90;;;;;;4952990;29;20784;-77
2022/09/21 06:31:01;;;;;;;0.10;0.10;;;5.10;99.90;;;;;;4947861;29;20202;-78
2022/09/21 06:33:29;;;;;;;0.10;0.10;;;5.00;99.90;;;;;;4939363;29;20220;-76
2022/09/21 06:35:58;;;;;;;0.10;0.10;;;5.10;99.90;;;;;;4953277;29;20189;-77
2022/09/21 06:38:27;;;;;;;0.00;0.00;;;5.10;99.90;;;;;;4952408;29;20346;-78
2022/09/21 06:41:01;;;;;;;0.10;0.10;;;5.10;99.90;;;;;;4951994;29;20206;-77
2022/09/21 06:43:29;;;;;;;0.10;0.10;;;5.10;99.90;;;;;;4952451;29;20237;-78
2022/09/21 06:45:59;;;;;;;0.10;0.10;;;5.20;99.90;;;;;;4932027;29;20233;-77
2022/09/21 06:48:28;;;;;;;0.10;0.10;;;5.20;99.90;;;;;;4952408;29;20241;-78
2022/09/21 06:50:58;;;;;;;0.00;0.00;;;5.20;99.90;;;;;;4951130;29;20214;-77
2022/09/21 06:53:26;;;;;;;0.00;0.00;;;5.20;99.90;;;;;;4965413;29;20205;-77
2022/09/21 06:55:54;;;;;;;0.05;0.05;;;5.30;99.90;;;;;;4964934;29;20209;-76
2022/09/21 06:58:23;;;;;;;0.10;0.10;;;5.40;99.90;;;;;;4954813;29;20596;-78
2022/09/21 07:00:51;;;;;;;0.10;0.10;;;5.50;99.90;;;;;;4942958;29;20195;-77
2022/09/21 07:03:19;;;;;;;0.10;0.10;;;5.50;99.90;;;;;;4954514;29;20260;-78
2022/09/21 07:05:46;;;;;;;0.10;0.10;;;5.60;99.90;;;;;;4948853;29;20202;-77
2022/09/21 07:08:14;;;;;;;0.10;0.10;;;5.70;99.90;;;;;;4945646;29;20226;-78
2022/09/21 07:11:02;;;;;;;0.10;0.10;;;5.70;99.90;;;;;;4953728;29;20900;-76
2022/09/21 07:13:31;;;;;;;0.10;0.10;;;5.80;99.90;;;;;;4953269;29;20193;-77
2022/09/21 07:16:04;;;;;;;0.10;0.10;;;5.80;99.90;;;;;;4959722;29;20252;-77
2022/09/21 07:18:32;;;;;;;0.10;0.10;;;5.90;99.90;;;;;;4952322;29;20228;-78
2022/09/21 07:21:11;;;;;;;0.00;0.00;;;5.90;99.90;;;;;;4946648;29;20229;-78
2022/09/21 07:23:39;;;;;;;0.10;0.10;;;6.10;99.90;;;;;;4961203;29;20210;-77
2022/09/21 07:26:08;;;;;;;0.00;0.00;;;6.20;99.90;;;;;;4953436;29;20206;-77
2022/09/21 07:28:38;;;;;;;0.10;0.10;;;6.30;99.90;;;;;;4960441;29;20222;-77
2022/09/21 07:31:07;;;;;;;0.10;0.10;;;6.40;99.90;;;;;;4950049;29;20471;-78
2022/09/21 07:33:35;;;;;;;0.00;0.00;;;6.50;99.90;;;;;;4948193;29;20543;-78
2022/09/21 07:36:08;;;;;;;0.10;0.10;;;6.50;99.90;;;;;;4945193;29;20277;-78
2022/09/21 07:38:38;;;;;;;0.10;0.10;;;6.60;99.90;;;;;;4932537;29;20293;-77
2022/09/21 07:41:06;;;;;;;0.10;0.10;;;6.60;99.90;;;;;;4950079;29;20213;-77
2022/09/21 07:43:34;;;;;;;0.10;0.10;;;6.70;99.90;;;;;;4949520;29;20229;-78
2022/09/21 07:46:03;;;;;;;0.10;0.10;;;6.80;99.90;;;;;;4953241;29;20229;-78
2022/09/21 07:48:31;;;;;;;0.00;0.00;;;6.80;99.90;;;;;;5005052;23;20228;-75
2022/09/21 07:51:04;;;;;;;0.10;0.10;;;6.80;99.90;;;;;;5003847;28;20267;-75
2022/09/21 07:53:32;;;;;;;0.10;0.10;;;7.00;99.90;;;;;;5011837;28;20203;-75
2022/09/21 07:56:01;;;;;;;0.00;0.00;;;7.00;99.90;;;;;;5013693;28;20207;-76
2022/09/21 08:01:16;;;;;;;0.10;0.10;;;7.30;99.90;;;;;;4985877;28;20200;-75
2022/09/21 08:03:44;;;;;;;0.10;0.10;;;7.50;99.90;;;;;;4987951;28;20211;-76
2022/09/21 08:06:12;;;;;;;0.10;0.10;;;7.60;99.90;;;;;;4990905;28;20225;-76
2022/09/21 08:08:41;;;;;;;0.10;0.10;;;7.70;99.90;;;;;;4997774;28;20236;-75
2022/09/21 08:11:10;;;;;;;0.10;0.10;;;7.80;99.90;;;;;;4988609;28;20232;-75
2022/09/21 08:13:38;;;;;;;0.10;0.10;;;7.90;99.90;;;;;;4991735;28;20207;-76
2022/09/21 08:16:06;;;;;;;0.00;0.00;;;7.90;99.90;;;;;;4976781;28;20212;-76
2022/09/21 08:18:38;;;;;;;0.10;0.10;;;8.00;99.90;;;;;;5011916;28;20285;-75
2022/09/21 08:21:09;;;;;;;0.10;0.10;;;8.00;99.90;;;;;;4988834;28;20287;-76
2022/09/21 08:23:41;;;;;;;0.10;0.10;;;8.10;99.90;;;;;;5002848;28;20223;-76
2022/09/21 08:26:15;;;;;;;0.10;0.10;;;8.20;99.90;;;;;;4995644;28;20212;-76
2022/09/21 08:28:43;;;;;;;0.03;0.03;;;8.30;99.90;;;;;;4996363;28;20219;-76
2022/09/21 08:31:11;;;;;;;0.00;0.00;;;8.40;99.90;;;;;;4996570;28;20220;-76
2022/09/21 08:33:40;;;;;;;0.10;0.10;;;8.50;99.90;;;;;;5003162;28;20252;-76
2022/09/21 08:36:08;;;;;;;0.00;0.00;;;8.60;99.90;;;;;;4983197;28;20718;-76
2022/09/21 08:38:38;;;;;;;0.10;0.10;;;8.70;99.90;;;;;;4983254;28;20216;-76
2022/09/21 08:41:15;;;;;;;0.10;0.10;;;8.80;99.90;;;;;;4981416;28;20227;-76
2022/09/21 08:43:44;;;;;;;0.10;0.10;;;8.90;99.90;;;;;;4979822;28;20749;-76
2022/09/21 08:46:16;;;;;;;0.00;0.00;;;9.00;99.90;;;;;;4983445;28;20755;-76
2022/09/21 08:48:50;;;;;;;0.10;0.10;;;9.10;99.90;;;;;;4983571;28;20232;-76
2022/09/21 08:51:24;;;;;;;0.10;0.10;;;9.20;99.90;;;;;;4984260;28;20251;-77
2022/09/21 08:53:56;;;;;;;0.10;0.10;;;9.30;99.90;;;;;;4988709;28;20209;-75
2022/09/21 08:56:26;;;;;;;0.10;0.10;;;9.50;99.90;;;;;;5004492;28;20265;-75
2022/09/21 08:59:15;;;;;;;0.10;0.10;;;9.60;99.90;;;;;;4998389;28;20208;-76
2022/09/21 09:01:57;;;;;;;0.00;0.00;;;9.70;99.90;;;;;;5007059;28;20193;-75
2022/09/21 09:04:47;;;;;;;0.10;0.10;;;9.80;99.90;;;;;;5000513;28;20575;-75
2022/09/21 09:07:35;;;;;;;0.10;0.10;;;10.00;99.90;;;;;;5003425;28;20200;-76
2022/09/21 09:10:19;;;;;;;0.08;0.08;;;10.10;99.90;;;;;;5001119;28;20731;-74
2022/09/21 09:12:59;;;;;;;0.10;0.10;;;10.30;99.90;;;;;;4997988;28;20196;-75
2022/09/21 09:15:42;;;;;;;0.10;0.10;;;10.40;99.90;;;;;;4991752;28;20204;-75
2022/09/21 09:18:18;;;;;;;0.10;0.10;;;10.60;99.90;;;;;;5000902;28;20235;-75
2022/09/21 09:20:52;;;;;;;0.10;0.10;;;10.70;99.90;;;;;;5003193;28;20253;-74
2022/09/21 09:23:24;;;;;;;0.00;0.00;;;10.80;99.90;;;;;;5006433;28;20231;-75
2022/09/21 09:25:56;;;;;;;0.10;0.10;;;10.90;99.90;;;;;;4991414;28;20201;-75
2022/09/21 09:28:30;;;;;;;0.10;0.10;;;10.90;99.90;;;;;;4993646;28;20216;-75
2022/09/21 09:31:02;;;;;;;0.10;0.10;;;10.90;99.90;;;;;;4995162;28;20343;-75
2022/09/21 09:33:52;;;;;;;0.10;0.10;;;11.00;99.90;;;;;;4993868;28;20233;-75
2022/09/21 09:36:23;;;;;;;0.10;0.10;;;11.10;99.90;;;;;;4970644;28;20252;-75
2022/09/21 09:39:13;;;;;;;0.10;0.10;;;11.20;99.90;;;;;;4974933;28;20248;-77
2022/09/21 09:41:57;;;;;;;0.10;0.10;;;11.30;99.90;;;;;;4999041;28;20259;-76
2022/09/21 09:44:42;;;;;;;0.10;0.10;;;11.40;99.90;;;;;;4992993;28;20257;-74
2022/09/21 09:47:27;;;;;;;0.10;0.10;;;11.60;99.90;;;;;;4997092;28;20603;-75
2022/09/21 09:50:04;;;;;;;0.10;0.10;;;11.60;99.90;;;;;;5005957;28;20203;-74
2022/09/21 09:52:34;;;;;;;0.00;0.00;;;11.70;99.90;;;;;;4983922;28;20231;-75
2022/09/21 09:55:15;;;;;;;0.10;0.10;;;11.80;99.90;;;;;;4988448;28;20240;-75
2022/09/21 09:57:43;;;;;;;0.10;0.10;;;11.90;99.90;;;;;;4990951;28;20224;-75
2022/09/21 10:00:15;;;;;;;0.10;0.10;;;12.00;99.90;;;;;;4991841;28;20212;-74
2022/09/21 10:02:48;;;;;;;0.10;0.10;;;12.20;99.90;;;;;;4992044;28;20250;-75
2022/09/21 10:05:22;;;;;;;0.10;0.10;;;12.30;99.90;;;;;;4990129;28;20610;-75
2022/09/21 10:07:52;;;;;;;0.00;0.00;;;12.40;99.90;;;;;;4981644;28;20224;-75
2022/09/21 10:10:35;;;;;;;0.00;0.00;;;12.50;99.90;;;;;;4988128;28;20201;-75
2022/09/21 10:13:10;;;;;;;0.10;0.10;;;12.60;99.90;;;;;;5003407;28;20273;-75
2022/09/21 10:15:43;;;;;;;0.10;0.10;;;12.60;99.90;;;;;;4992451;28;20239;-75
2022/09/21 10:18:19;;;;;;;0.10;0.10;;;12.70;99.90;;;;;;4993686;28;20290;-75
2022/09/21 10:21:02;;;;;;;0.10;0.10;;;12.80;99.90;;;;;;5010194;28;20191;-74
2022/09/21 10:23:33;;;;;;;0.10;0.10;;;12.90;99.90;;;;;;5009388;28;20222;-75
2022/09/21 10:26:03;;;;;;;0.00;0.00;;;13.00;99.90;;;;;;4997020;28;20204;-74
2022/09/21 10:28:32;;;;;;;0.00;0.00;;;13.00;99.90;;;;;;4992710;28;20274;-74
2022/09/21 10:31:16;;;;;;;0.05;0.05;;;13.10;99.90;;;;;;4985591;28;20216;-74
2022/09/21 10:33:49;;;;;;;0.10;0.10;;;13.30;99.90;;;;;;4986305;28;20225;-74
2022/09/21 10:36:29;;;;;;;0.00;0.00;;;13.40;99.90;;;;;;4985195;28;20750;-74
2022/09/21 10:39:12;;;;;;;0.03;0.03;;;13.50;99.90;;;;;;4987863;28;20231;-74
2022/09/21 10:41:40;;;;;;;0.00;0.00;;;13.70;99.90;;;;;;4992993;28;20239;-76
2022/09/21 10:44:16;;;;;;;0.10;0.10;;;13.90;99.90;;;;;;4972645;28;20258;-75
2022/09/21 10:46:45;;;;;;;0.00;0.00;;;14.00;99.90;;;;;;4984002;28;20196;-75
2022/09/21 10:49:20;;;;;;;0.05;0.05;;;14.10;99.90;;;;;;4985927;28;21212;-75
2022/09/21 10:51:50;;;;;;;0.10;0.10;;;14.20;99.90;;;;;;4983647;28;20216;-75
2022/09/21 10:54:23;;;;;;;0.10;0.10;;;14.30;99.90;;;;;;4985314;28;20197;-75
2022/09/21 10:56:54;;;;;;;0.00;0.00;;;14.60;99.90;;;;;;4983504;28;20193;-75
2022/09/21 10:59:25;;;;;;;0.08;0.08;;;14.70;99.90;;;;;;4984118;28;20596;-75
2022/09/21 11:01:55;;;;;;;0.00;0.00;;;14.80;99.90;;;;;;4969633;28;21127;-74
2022/09/21 11:04:41;;;;;;;0.00;0.00;;;15.00;99.90;;;;;;4992763;28;20583;-75
2022/09/21 11:07:16;;;;;;;0.00;0.00;;;15.00;99.90;;;;;;4996773;28;20220;-75
2022/09/21 11:09:54;;;;;;;0.00;0.00;;;15.20;99.90;;;;;;4985677;28;20601;-75
2022/09/21 11:12:43;;;;;;;0.00;0.00;;;15.20;99.90;;;;;;4979391;28;20382;-75
2022/09/21 11:15:29;;;;;;;0.00;0.00;;;14.80;99.90;;;;;;4975182;28;20201;-75
2022/09/21 11:18:04;;;;;;;0.00;0.00;;;14.60;99.90;;;;;;4987648;28;20470;-75
2022/09/21 11:20:40;;;;;;;0.00;0.00;;;14.60;99.90;;;;;;5003865;28;20239;-75
2022/09/21 11:23:21;;;;;;;0.03;0.03;;;14.60;99.90;;;;;;4989851;28;20188;-75
2022/09/21 11:26:00;;;;;;;0.00;0.00;;;14.70;99.90;;;;;;4978800;28;20530;-75
2022/09/21 11:28:33;;;;;;;0.00;0.00;;;14.70;99.90;;;;;;4997964;28;20274;-75
2022/09/21 11:31:18;;;;;;;0.00;0.00;;;14.60;99.90;;;;;;4992414;28;20515;-75
2022/09/21 11:34:01;;;;;;;0.00;0.00;;;14.60;99.90;;;;;;4993689;28;20535;-75
2022/09/21 11:36:40;;;;;;;0.10;0.10;;;14.50;99.90;;;;;;5003061;28;20333;-75
2022/09/21 11:39:19;;;;;;;0.03;0.03;;;14.50;99.90;;;;;;4973692;28;20224;-75
2022/09/21 11:42:01;;;;;;;0.10;0.10;;;14.40;99.90;;;;;;4990752;28;20200;-75
2022/09/21 11:44:42;;;;;;;0.05;0.05;;;14.30;99.90;;;;;;4992176;28;20232;-75
2022/09/21 11:47:22;;;;;;;0.10;0.10;;;14.30;99.90;;;;;;5004502;28;20674;-75
2022/09/21 11:50:04;;;;;;;0.00;0.00;;;14.20;99.90;;;;;;5009884;28;20250;-75
2022/09/21 11:53:04;;;;;;;0.10;0.10;;;14.20;99.90;;;;;;4986917;28;20231;-75
2022/09/21 11:55:57;;;;;;;0.10;0.10;;;14.20;99.90;;;;;;4993690;28;20559;-75
2022/09/21 11:58:33;;;;;;;0.10;0.10;;;14.30;99.90;;;;;;4977236;28;20759;-74
2022/09/21 12:01:11;;;;;;;0.00;0.00;;;14.30;99.90;;;;;;4980353;28;20208;-75
2022/09/21 12:04:06;;;;;;;0.05;0.05;;;14.30;99.90;;;;;;4977837;28;20200;-76
2022/09/21 12:06:44;;;;;;;0.00;0.00;;;14.40;99.90;;;;;;4990879;28;20204;-76
2022/09/21 12:09:35;;;;;;;0.00;0.00;;;14.40;99.90;;;;;;4982618;28;20233;-75
2022/09/21 12:12:10;;;;;;;0.00;0.00;;;14.40;99.90;;;;;;4989914;28;20216;-75
2022/09/21 12:14:49;;;;;;;0.00;0.00;;;14.50;99.90;;;;;;4997396;28;20245;-75
2022/09/21 12:17:23;;;;;;;0.00;0.00;;;14.50;99.90;;;;;;4988699;28;20593;-75
2022/09/21 12:20:02;;;;;;;0.00;0.00;;;14.50;99.90;;;;;;4991738;28;20599;-75
2022/09/21 12:22:35;;;;;;;0.00;0.00;;;14.60;99.90;;;;;;4987114;28;20259;-75
2022/09/21 12:25:12;;;;;;;0.00;0.00;;;14.60;99.90;;;;;;4988536;28;20197;-75
2022/09/21 12:27:42;;;;;;;0.00;0.00;;;14.70;99.90;;;;;;4982539;28;20251;-75
2022/09/21 12:30:15;;;;;;;0.00;0.00;;;14.70;99.90;;;;;;4987288;28;20192;-75
2022/09/21 12:32:52;;;;;;;0.00;0.00;;;14.70;99.90;;;;;;4981031;28;20221;-75
2022/09/21 12:35:26;;;;;;;0.10;0.10;;;14.70;99.90;;;;;;4997025;28;20328;-74
2022/09/21 12:37:59;;;;;;;0.00;0.00;;;14.80;99.90;;;;;;4988526;28;20278;-74
2022/09/21 12:40:33;;;;;;;0.00;0.00;;;14.70;99.90;;;;;;5005198;28;20193;-76
2022/09/21 12:43:11;;;;;;;0.10;0.10;;;14.80;99.90;;;;;;4989118;28;20200;-74
2022/09/21 12:45:43;;;;;;;0.10;0.10;;;14.80;99.90;;;;;;4978245;28;20212;-75
2022/09/21 12:48:23;;;;;;;0.00;0.00;;;14.80;99.90;;;;;;4984116;28;20674;-74
2022/09/21 12:50:55;;;;;;;0.00;0.00;;;14.90;99.90;;;;;;4992809;28;20243;-74
2022/09/21 12:53:27;;;;;;;0.00;0.00;;;14.90;99.90;;;;;;4990616;28;20278;-74
2022/09/21 12:56:01;;;;;;;0.03;0.03;;;14.80;99.90;;;;;;4993248;28;20208;-75
2022/09/21 12:58:49;;;;;;;0.00;0.00;;;14.80;99.90;;;;;;5004802;28;20224;-74
2022/09/21 13:01:27;;;;;;;0.00;0.00;;;14.90;99.90;;;;;;4987964;28;20228;-75
2022/09/21 13:04:09;;;;;;;0.10;0.10;;;14.90;99.90;;;;;;4991466;28;20196;-74
2022/09/21 13:07:20;;;;;;;0.00;0.00;;;15.00;99.90;;;;;;5000251;28;20611;-74
2022/09/21 13:09:50;;;;;;;0.00;0.00;;;15.00;99.90;;;;;;5008409;28;20253;-74
2022/09/21 13:12:23;;;;;;;0.00;0.00;;;15.10;99.90;;;;;;5005617;28;20335;-74
2022/09/21 13:14:54;;;;;;;0.10;0.10;;;15.10;99.90;;;;;;4991559;28;20204;-75
2022/09/21 13:17:28;;;;;;;0.00;0.00;;;15.10;99.90;;;;;;4986267;28;20290;-75
2022/09/21 13:20:00;;;;;;;0.00;0.00;;;15.20;99.90;;;;;;4998827;28;20757;-75
2022/09/21 13:22:32;;;;;;;0.00;0.00;;;15.50;99.90;;;;;;5011219;28;20196;-75
2022/09/21 13:25:05;;;;;;;0.00;0.00;;;15.60;99.90;;;;;;4999357;28;20384;-75